createdAt,value
2019-02-28T00:01:46.462Z,-0.53
2019-02-28T00:04:21.640Z,-0.52
2019-02-28T00:06:53.809Z,-0.47
2019-02-28T00:09:26.447Z,-0.44
2019-02-28T00:11:56.907Z,-0.38
2019-02-28T00:14:28.528Z,-0.36
2019-02-28T00:17:00.124Z,-0.35
2019-02-28T00:19:32.035Z,-0.30
2019-02-28T00:22:02.911Z,-0.45
2019-02-28T00:24:34.254Z,-0.39
2019-02-28T00:27:05.603Z,-0.45
2019-02-28T00:29:36.029Z,-0.41
2019-02-28T00:32:09.172Z,-0.49
2019-02-28T00:34:39.925Z,-0.47
2019-02-28T00:37:10.711Z,-0.48
2019-02-28T00:39:42.237Z,-0.52
2019-02-28T00:42:17.443Z,-0.58
2019-02-28T00:44:48.678Z,-0.68
2019-02-28T00:47:20.097Z,-0.73
2019-02-28T00:49:55.010Z,-0.75
2019-02-28T00:52:24.508Z,-0.76
2019-02-28T00:54:56.981Z,-0.74
2019-02-28T00:57:27.501Z,-0.87
2019-02-28T00:59:58.742Z,-0.92
2019-02-28T01:02:29.791Z,-0.91
2019-02-28T01:05:04.823Z,-1.02
2019-02-28T01:07:34.732Z,-1.10
2019-02-28T01:10:08.629Z,-1.10
2019-02-28T01:12:38.971Z,-1.19
2019-02-28T01:15:15.842Z,-1.17
2019-02-28T01:17:50.052Z,-1.12
2019-02-28T01:20:21.092Z,-1.19
2019-02-28T01:22:53.567Z,-1.23
2019-02-28T01:25:25.008Z,-1.19
2019-02-28T01:27:56.054Z,-1.12
2019-02-28T01:30:27.096Z,-1.13
2019-02-28T01:32:59.598Z,-1.14
2019-02-28T01:35:34.088Z,-1.21
2019-02-28T01:38:04.820Z,-1.19
2019-02-28T01:40:38.444Z,-1.25
2019-02-28T01:43:11.613Z,-1.30
2019-02-28T01:45:44.501Z,-1.32
2019-02-28T01:48:16.046Z,-1.30
2019-02-28T01:50:48.884Z,-1.32
2019-02-28T01:53:19.693Z,-1.28
2019-02-28T01:55:50.700Z,-1.32
2019-02-28T01:58:23.172Z,-1.23
2019-02-28T02:00:57.386Z,-1.34
2019-02-28T02:03:26.784Z,-1.22
2019-02-28T02:05:57.531Z,-1.32
2019-02-28T02:08:29.995Z,-1.24
2019-02-28T02:11:00.528Z,-1.17
2019-02-28T02:13:36.829Z,-1.19
2019-02-28T02:16:07.109Z,-1.22
2019-02-28T02:18:40.321Z,-1.19
2019-02-28T02:21:10.415Z,-1.09
2019-02-28T02:23:41.248Z,-1.06
2019-02-28T02:26:14.542Z,-1.12
2019-02-28T02:28:45.101Z,-1.12
2019-02-28T02:31:15.703Z,-1.06
2019-02-28T02:33:50.855Z,-1.08
2019-02-28T02:36:20.239Z,-0.97
2019-02-28T02:38:51.585Z,-1.01
2019-02-28T02:41:24.360Z,-0.95
2019-02-28T02:43:55.928Z,-0.97
2019-02-28T02:46:26.953Z,-0.93
2019-02-28T02:48:58.088Z,-0.91
2019-02-28T02:51:28.727Z,-1.00
2019-02-28T02:53:59.466Z,-0.97
2019-02-28T02:56:30.705Z,-0.96
2019-02-28T02:59:02.347Z,-0.94
2019-02-28T03:01:34.025Z,-0.96
2019-02-28T03:04:06.895Z,-1.01
2019-02-28T03:06:40.602Z,-0.91
2019-02-28T03:09:11.253Z,-0.90
2019-02-28T03:11:45.842Z,-0.93
2019-02-28T03:14:17.371Z,-0.83
2019-02-28T03:16:49.454Z,-0.79
2019-02-28T03:19:21.427Z,-0.83
2019-02-28T03:21:53.005Z,-0.82
2019-02-28T03:24:24.020Z,-0.80
2019-02-28T03:26:54.496Z,-0.74
2019-02-28T03:29:26.196Z,-0.78
2019-02-28T03:31:59.514Z,-0.72
2019-02-28T03:34:29.610Z,-0.80
2019-02-28T03:37:00.443Z,-0.72
2019-02-28T03:39:31.591Z,-0.69
2019-02-28T03:42:03.189Z,-0.70
2019-02-28T03:44:33.564Z,-0.68
2019-02-28T03:47:04.202Z,-0.74
2019-02-28T03:49:35.010Z,-0.73
2019-02-28T03:52:08.840Z,-0.81
2019-02-28T03:54:39.772Z,-0.78
2019-02-28T03:57:10.414Z,-0.82
2019-02-28T03:59:43.386Z,-0.84
2019-02-28T04:02:20.982Z,-0.81
2019-02-28T04:04:50.185Z,-0.81
2019-02-28T04:07:19.064Z,-0.86
2019-02-28T04:09:49.796Z,-0.80
2019-02-28T04:12:21.453Z,-0.85
2019-02-28T04:14:56.848Z,-0.82
2019-02-28T04:17:30.411Z,-0.91
2019-02-28T04:20:00.667Z,-0.92
2019-02-28T04:22:32.716Z,-0.83
2019-02-28T04:25:02.930Z,-0.80
2019-02-28T04:27:35.177Z,-0.77
2019-02-28T04:30:11.837Z,-0.74
2019-02-28T04:32:42.976Z,-0.81
2019-02-28T04:35:14.121Z,-0.76
2019-02-28T04:37:47.056Z,-0.75
2019-02-28T04:40:24.072Z,-0.81
2019-02-28T04:42:55.530Z,-0.86
2019-02-28T04:45:27.067Z,-0.80
2019-02-28T04:48:00.484Z,-0.81
2019-02-28T04:50:32.268Z,-0.72
2019-02-28T04:53:03.485Z,-0.71
2019-02-28T04:55:37.336Z,-0.77
2019-02-28T04:58:09.041Z,-0.82
2019-02-28T05:00:39.879Z,-0.74
2019-02-28T05:03:10.811Z,-0.73
2019-02-28T05:05:46.595Z,-0.78
2019-02-28T05:08:15.043Z,-0.77
2019-02-28T05:10:45.689Z,-0.70
2019-02-28T05:13:18.347Z,-0.78
2019-02-28T05:15:49.070Z,-0.77
2019-02-28T05:18:22.783Z,-0.76
2019-02-28T05:20:53.215Z,-0.74
2019-02-28T05:23:23.837Z,-0.56
2019-02-28T05:25:55.903Z,-0.47
2019-02-28T05:28:26.330Z,-0.49
2019-02-28T05:30:57.466Z,-0.45
2019-02-28T05:33:30.897Z,-0.43
2019-02-28T05:36:04.331Z,-0.57
2019-02-28T05:38:35.930Z,-0.52
2019-02-28T05:41:06.439Z,-0.45
2019-02-28T05:43:37.290Z,-0.41
2019-02-28T05:46:08.215Z,-0.47
2019-02-28T05:48:39.481Z,-0.21
2019-02-28T05:51:10.293Z,-0.19
2019-02-28T05:53:42.447Z,-0.07
2019-02-28T05:56:14.010Z,-0.10
2019-02-28T05:58:45.047Z,-0.12
2019-02-28T06:01:17.390Z,-0.03
2019-02-28T06:03:48.876Z,0.11
2019-02-28T06:06:20.973Z,0.11
2019-02-28T06:08:51.255Z,0.26
2019-02-28T06:11:21.884Z,0.18
2019-02-28T06:13:52.857Z,0.22
2019-02-28T06:16:24.473Z,0.46
2019-02-28T06:18:56.421Z,0.60
2019-02-28T06:21:27.908Z,0.50
2019-02-28T06:23:58.834Z,0.56
2019-02-28T06:26:31.792Z,0.58
2019-02-28T06:29:05.796Z,0.78
2019-02-28T06:31:36.660Z,0.72
2019-02-28T06:34:09.305Z,0.80
2019-02-28T06:36:39.661Z,0.94
2019-02-28T06:39:10.074Z,0.78
2019-02-28T06:41:41.086Z,0.75
2019-02-28T06:44:12.667Z,0.94
2019-02-28T06:46:44.032Z,1.04
2019-02-28T06:49:14.442Z,1.11
2019-02-28T06:51:45.071Z,1.06
2019-02-28T06:54:16.418Z,1.09
2019-02-28T06:56:46.951Z,1.23
2019-02-28T06:59:17.378Z,1.21
2019-02-28T07:01:56.656Z,1.44
2019-02-28T07:04:24.057Z,1.42
2019-02-28T07:06:56.019Z,1.45
2019-02-28T07:09:30.473Z,1.67
2019-02-28T07:12:00.870Z,1.52
2019-02-28T07:14:32.125Z,1.64
2019-02-28T07:17:03.248Z,1.62
2019-02-28T07:19:35.887Z,1.54
2019-02-28T07:22:07.172Z,1.95
2019-02-28T07:24:38.235Z,1.79
2019-02-28T07:27:09.255Z,1.90
2019-02-28T07:29:42.729Z,1.60
2019-02-28T07:32:13.179Z,1.73
2019-02-28T07:34:43.496Z,1.95
2019-02-28T07:37:18.602Z,2.39
2019-02-28T07:39:46.617Z,2.36
2019-02-28T07:42:17.642Z,2.27
2019-02-28T07:44:48.993Z,2.45
2019-02-28T07:47:20.746Z,2.51
2019-02-28T07:49:51.274Z,2.48
2019-02-28T07:52:21.803Z,2.55
2019-02-28T07:54:55.618Z,2.46
2019-02-28T07:57:25.082Z,2.69
2019-02-28T07:59:55.532Z,2.86
2019-02-28T08:02:26.982Z,3.22
2019-02-28T08:04:59.147Z,2.98
2019-02-28T08:07:30.189Z,3.07
2019-02-28T08:10:01.432Z,2.94
2019-02-28T08:12:32.382Z,2.75
2019-02-28T08:15:03.969Z,3.02
2019-02-28T08:17:35.432Z,3.00
2019-02-28T08:20:08.983Z,2.86
2019-02-28T08:22:40.023Z,2.77
2019-02-28T08:25:13.102Z,2.56
2019-02-28T08:27:43.833Z,2.65
2019-02-28T08:30:19.442Z,2.75
2019-02-28T08:32:49.294Z,2.79
2019-02-28T08:35:19.937Z,2.85
2019-02-28T08:37:55.626Z,2.75
2019-02-28T08:40:26.620Z,3.14
2019-02-28T08:42:59.580Z,3.37
2019-02-28T08:45:33.482Z,3.59
2019-02-28T08:48:02.192Z,3.27
2019-02-28T08:50:34.761Z,3.63
2019-02-28T08:53:07.842Z,3.71
2019-02-28T08:55:39.994Z,3.54
2019-02-28T08:58:12.714Z,3.66
2019-02-28T09:00:42.916Z,3.23
2019-02-28T09:03:13.548Z,3.36
2019-02-28T09:05:44.383Z,3.36
2019-02-28T09:08:16.134Z,3.20
2019-02-28T09:10:46.992Z,3.64
2019-02-28T09:13:18.931Z,3.91
2019-02-28T09:15:50.636Z,3.65
2019-02-28T09:18:21.418Z,3.69
2019-02-28T09:20:52.867Z,3.47
2019-02-28T09:23:23.698Z,3.70
2019-02-28T09:25:56.728Z,3.81
2019-02-28T09:28:28.653Z,4.27
2019-02-28T09:31:01.402Z,4.09
2019-02-28T09:33:31.750Z,3.89
2019-02-28T09:36:03.101Z,4.16
2019-02-28T09:38:34.443Z,3.79
2019-02-28T09:41:05.404Z,4.34
2019-02-28T09:43:36.844Z,3.87
2019-02-28T09:46:09.072Z,3.83
2019-02-28T09:48:39.848Z,4.41
2019-02-28T09:51:12.920Z,3.91
2019-02-28T09:53:47.325Z,4.04
2019-02-28T09:56:19.421Z,3.92
2019-02-28T09:58:49.837Z,4.03
2019-02-28T10:01:21.341Z,4.98
2019-02-28T10:03:55.322Z,5.55
2019-02-28T10:06:27.659Z,6.73
2019-02-28T10:08:58.799Z,7.33
2019-02-28T10:11:31.898Z,6.07
2019-02-28T10:14:03.129Z,5.98
2019-02-28T10:16:33.558Z,5.19
2019-02-28T10:19:05.320Z,4.65
2019-02-28T10:21:36.198Z,4.32
2019-02-28T10:24:07.491Z,4.36
2019-02-28T10:26:38.430Z,4.50
2019-02-28T10:29:10.288Z,4.27
2019-02-28T10:31:42.563Z,4.30
2019-02-28T10:34:15.141Z,4.29
2019-02-28T10:36:47.974Z,4.17
2019-02-28T10:39:18.170Z,4.32
2019-02-28T10:41:49.293Z,4.31
2019-02-28T10:44:21.753Z,4.54
2019-02-28T10:46:53.830Z,4.76
2019-02-28T10:49:25.722Z,4.65
2019-02-28T10:51:55.914Z,4.48
2019-02-28T10:54:26.524Z,4.36
2019-02-28T10:56:58.389Z,4.27
2019-02-28T10:59:29.324Z,4.31
2019-02-28T11:02:00.820Z,4.44
2019-02-28T11:04:31.508Z,4.37
2019-02-28T11:07:02.998Z,4.80
2019-02-28T11:09:33.593Z,4.37
2019-02-28T11:12:04.225Z,4.55
2019-02-28T11:14:35.529Z,4.49
2019-02-28T11:17:13.414Z,4.38
2019-02-28T11:19:39.172Z,4.29
2019-02-28T11:22:09.804Z,4.36
2019-02-28T11:24:40.843Z,4.32
2019-02-28T11:27:12.401Z,4.07
2019-02-28T11:29:43.742Z,4.15
2019-02-28T11:32:14.169Z,4.02
2019-02-28T11:34:45.840Z,3.93
2019-02-28T11:37:18.438Z,3.97
2019-02-28T11:39:48.723Z,3.91
2019-02-28T11:42:28.095Z,3.98
2019-02-28T11:44:59.001Z,4.07
2019-02-28T11:47:30.131Z,4.09
2019-02-28T11:50:04.694Z,4.39
2019-02-28T11:52:36.313Z,5.23
2019-02-28T11:55:12.080Z,6.33
2019-02-28T11:57:43.606Z,6.73
2019-02-28T12:00:35.831Z,7.45
2019-02-28T12:03:07.416Z,6.99
2019-02-28T12:05:37.653Z,5.62
2019-02-28T12:08:10.422Z,5.60
2019-02-28T12:10:41.160Z,5.37
2019-02-28T12:13:11.675Z,5.35
2019-02-28T12:15:42.596Z,5.06
2019-02-28T12:18:14.658Z,4.97
2019-02-28T12:20:45.804Z,4.83
2019-02-28T12:23:22.897Z,4.37
2019-02-28T12:25:51.175Z,4.49
2019-02-28T12:28:23.216Z,4.57
2019-02-28T12:30:53.438Z,4.48
2019-02-28T12:33:26.942Z,4.34
2019-02-28T12:35:58.282Z,4.30
2019-02-28T12:38:29.209Z,4.28
2019-02-28T12:41:00.260Z,4.30
2019-02-28T12:43:32.898Z,4.18
2019-02-28T12:46:04.597Z,4.18
2019-02-28T12:48:35.528Z,4.05
2019-02-28T12:51:06.314Z,4.19
2019-02-28T12:53:37.509Z,4.23
2019-02-28T12:56:07.841Z,4.29
2019-02-28T12:58:41.618Z,4.24
2019-02-28T13:01:14.437Z,4.12
2019-02-28T13:03:44.940Z,4.25
2019-02-28T13:06:23.439Z,4.19
2019-02-28T13:08:53.422Z,4.15
2019-02-28T13:11:24.924Z,4.28
2019-02-28T13:13:59.819Z,4.38
2019-02-28T13:16:28.652Z,4.37
2019-02-28T13:18:59.373Z,4.54
2019-02-28T13:21:31.250Z,4.43
2019-02-28T13:24:05.968Z,4.55
2019-02-28T13:26:36.490Z,4.80
2019-02-28T13:29:07.122Z,4.61
2019-02-28T13:31:38.156Z,4.65
2019-02-28T13:34:08.675Z,4.65
2019-02-28T13:36:41.061Z,4.55
2019-02-28T13:39:11.910Z,4.52
2019-02-28T13:41:42.634Z,4.52
2019-02-28T13:44:13.151Z,4.43
2019-02-28T13:46:44.608Z,4.60
2019-02-28T13:49:17.145Z,4.60
2019-02-28T13:51:48.421Z,4.64
2019-02-28T13:54:19.067Z,4.43
2019-02-28T13:56:52.665Z,4.48
2019-02-28T13:59:24.637Z,4.55
2019-02-28T14:01:56.135Z,4.57
2019-02-28T14:04:27.408Z,4.57
2019-02-28T14:06:58.051Z,4.56
2019-02-28T14:09:30.235Z,4.64
2019-02-28T14:12:01.248Z,4.62
2019-02-28T14:14:31.779Z,4.62
2019-02-28T14:17:02.399Z,4.58
2019-02-28T14:19:34.154Z,4.59
2019-02-28T14:22:04.695Z,4.52
2019-02-28T14:24:35.217Z,4.56
2019-02-28T14:27:05.846Z,4.60
2019-02-28T14:29:38.619Z,4.56
2019-02-28T14:32:09.356Z,4.47
2019-02-28T14:34:39.994Z,4.47
2019-02-28T14:37:10.714Z,4.45
2019-02-28T14:39:42.682Z,4.50
2019-02-28T14:42:15.048Z,4.48
2019-02-28T14:44:46.709Z,4.51
2019-02-28T14:47:19.184Z,4.45
2019-02-28T14:49:49.666Z,4.51
2019-02-28T14:52:20.345Z,4.45
2019-02-28T14:54:50.864Z,4.49
2019-02-28T14:57:22.925Z,4.51
2019-02-28T14:59:54.273Z,4.58
2019-02-28T15:02:27.942Z,4.44
2019-02-28T15:04:56.970Z,4.48
2019-02-28T15:07:28.414Z,4.48
2019-02-28T15:10:01.707Z,4.48
2019-02-28T15:12:31.723Z,4.46
2019-02-28T15:15:02.355Z,4.52
2019-02-28T15:17:33.189Z,4.51
2019-02-28T15:20:04.536Z,4.56
2019-02-28T15:22:39.629Z,4.55
2019-02-28T15:25:15.272Z,4.53
2019-02-28T15:27:47.421Z,4.53
2019-02-28T15:30:26.307Z,4.56
2019-02-28T15:32:56.937Z,4.53
2019-02-28T15:35:27.790Z,4.60
2019-02-28T15:37:58.916Z,4.59
2019-02-28T15:40:34.687Z,4.60
2019-02-28T15:43:04.887Z,4.62
2019-02-28T15:45:36.491Z,4.65
2019-02-28T15:48:08.811Z,4.65
2019-02-28T15:50:39.747Z,4.67
2019-02-28T15:53:11.310Z,4.61
2019-02-28T15:55:42.233Z,4.63
2019-02-28T15:58:12.461Z,4.59
2019-02-28T16:00:43.600Z,4.58
2019-02-28T16:03:16.643Z,4.60
2019-02-28T16:05:46.907Z,4.61
2019-02-28T16:08:18.015Z,4.62
2019-02-28T16:10:53.275Z,4.63
2019-02-28T16:13:22.651Z,4.66
2019-02-28T16:15:57.739Z,4.67
2019-02-28T16:18:29.063Z,4.70
2019-02-28T16:20:59.594Z,4.72
2019-02-28T16:23:31.141Z,4.69
2019-02-28T16:26:04.129Z,4.74
2019-02-28T16:28:35.130Z,4.73
2019-02-28T16:31:07.535Z,4.75
2019-02-28T16:33:37.984Z,4.73
2019-02-28T16:36:08.592Z,4.77
2019-02-28T16:38:42.474Z,4.78
2019-02-28T16:41:12.722Z,4.76
2019-02-28T16:43:58.606Z,4.79
2019-02-28T16:46:31.594Z,4.74
2019-02-28T16:49:03.049Z,4.71
2019-02-28T16:51:33.704Z,4.71
2019-02-28T16:54:06.866Z,4.74
2019-02-28T16:56:38.698Z,4.69
2019-02-28T16:59:10.415Z,4.66
2019-02-28T17:01:43.669Z,4.67
2019-02-28T17:04:17.286Z,4.60
2019-02-28T17:06:49.331Z,4.63
2019-02-28T17:09:21.911Z,4.60
2019-02-28T17:11:56.223Z,4.53
2019-02-28T17:14:26.957Z,4.54
2019-02-28T17:17:00.151Z,4.54
2019-02-28T17:19:32.464Z,4.52
2019-02-28T17:22:03.759Z,4.49
2019-02-28T17:24:35.113Z,4.45
2019-02-28T17:27:07.586Z,4.46
2019-02-28T17:29:39.643Z,4.49
2019-02-28T17:32:10.275Z,4.48
2019-02-28T17:34:41.830Z,4.49
2019-02-28T17:37:13.214Z,4.48
2019-02-28T17:39:43.396Z,4.46
2019-02-28T17:42:15.198Z,4.47
2019-02-28T17:44:54.071Z,4.42
2019-02-28T17:47:33.064Z,4.37
2019-02-28T17:50:30.047Z,4.40
2019-02-28T17:53:24.542Z,4.39
2019-02-28T17:56:30.590Z,4.35
2019-02-28T17:59:28.366Z,4.32
2019-02-28T18:02:23.979Z,4.05
2019-02-28T18:05:03.973Z,4.36
2019-02-28T18:07:46.745Z,4.30
2019-02-28T18:10:25.192Z,4.32
2019-02-28T18:13:21.168Z,4.35
2019-02-28T18:16:09.541Z,4.34
2019-02-28T18:19:02.784Z,4.34
2019-02-28T18:21:48.168Z,4.40
2019-02-28T18:24:42.143Z,4.39
2019-02-28T18:27:35.294Z,4.37
2019-02-28T18:30:27.614Z,4.35
2019-02-28T18:32:59.429Z,4.35
2019-02-28T18:35:32.628Z,4.41
2019-02-28T18:38:04.031Z,4.42
2019-02-28T18:40:34.967Z,4.38
2019-02-28T18:43:06.409Z,4.43
2019-02-28T18:45:38.072Z,4.47
2019-02-28T18:48:08.397Z,4.48
2019-02-28T18:50:40.689Z,4.41
2019-02-28T18:53:10.885Z,4.44
2019-02-28T18:55:42.956Z,4.42
2019-02-28T18:58:13.887Z,4.40
2019-02-28T19:00:44.927Z,4.33
2019-02-28T19:03:16.965Z,4.53
2019-02-28T19:05:47.520Z,4.56
2019-02-28T19:08:18.354Z,4.46
2019-02-28T19:10:49.473Z,4.41
2019-02-28T19:13:20.229Z,4.42
2019-02-28T19:15:50.420Z,4.52
2019-02-28T19:18:20.976Z,4.58
2019-02-28T19:20:52.113Z,4.69
2019-02-28T19:23:22.644Z,4.73
2019-02-28T19:25:53.276Z,4.72
2019-02-28T19:28:23.690Z,4.67
2019-02-28T19:30:54.328Z,4.64
2019-02-28T19:33:25.573Z,4.62
2019-02-28T19:35:56.720Z,4.61
2019-02-28T19:38:27.343Z,4.54
2019-02-28T19:40:58.135Z,4.51
2019-02-28T19:43:28.714Z,4.50
2019-02-28T19:45:59.397Z,4.46
2019-02-28T19:48:30.273Z,4.59
2019-02-28T19:51:01.106Z,4.50
2019-02-28T19:53:32.355Z,4.55
2019-02-28T19:56:02.778Z,4.49
2019-02-28T19:58:35.872Z,4.73
2019-02-28T20:01:18.581Z,4.82
2019-02-28T20:03:41.838Z,4.82
2019-02-28T20:06:12.697Z,4.90
2019-02-28T20:08:43.196Z,4.93
2019-02-28T20:11:14.547Z,4.94
2019-02-28T20:13:46.028Z,4.88
2019-02-28T20:16:17.137Z,4.89
2019-02-28T20:18:47.358Z,4.87
2019-02-28T20:21:20.357Z,4.88
2019-02-28T20:23:52.850Z,4.90
2019-02-28T20:26:24.169Z,4.96
2019-02-28T20:28:54.701Z,4.94
2019-02-28T20:31:26.637Z,5.03
2019-02-28T20:33:56.971Z,5.18
2019-02-28T20:36:27.602Z,5.24
2019-02-28T20:38:58.246Z,5.32
2019-02-28T20:41:28.766Z,5.44
2019-02-28T20:43:59.089Z,5.61
2019-02-28T20:46:30.025Z,5.61
2019-02-28T20:49:00.751Z,5.65
2019-02-28T20:51:31.998Z,5.63
2019-02-28T20:54:02.524Z,5.70
2019-02-28T20:56:34.079Z,5.62
2019-02-28T20:59:05.422Z,5.70
2019-02-28T21:01:37.888Z,5.64
2019-02-28T21:04:08.323Z,5.69
2019-02-28T21:06:39.773Z,5.72
2019-02-28T21:09:12.347Z,5.69
2019-02-28T21:11:43.796Z,5.67
2019-02-28T21:14:15.350Z,5.66
2019-02-28T21:16:48.476Z,5.70
2019-02-28T21:19:19.480Z,5.70
2019-02-28T21:21:49.797Z,5.68
2019-02-28T21:24:20.736Z,5.68
2019-02-28T21:26:51.366Z,5.83
2019-02-28T21:29:21.999Z,5.91
2019-02-28T21:31:53.756Z,6.04
2019-02-28T21:34:23.931Z,5.99
2019-02-28T21:36:54.402Z,6.07
2019-02-28T21:39:25.625Z,6.07
2019-02-28T21:41:56.375Z,6.10
2019-02-28T21:44:27.104Z,6.08
2019-02-28T21:46:57.623Z,6.02
2019-02-28T21:49:28.571Z,5.92
2019-02-28T21:51:59.710Z,5.91
2019-02-28T21:54:30.554Z,5.86
2019-02-28T21:57:01.186Z,5.85
2019-02-28T21:59:31.709Z,5.77
2019-02-28T22:02:03.567Z,5.78
2019-02-28T22:04:34.030Z,5.70
2019-02-28T22:07:05.546Z,5.72
2019-02-28T22:09:36.281Z,5.66
2019-02-28T22:12:06.804Z,5.68
2019-02-28T22:14:37.329Z,5.68
2019-02-28T22:17:07.966Z,5.72
2019-02-28T22:19:38.805Z,5.57
2019-02-28T22:22:12.453Z,5.51
2019-02-28T22:24:42.718Z,5.41
2019-02-28T22:27:13.350Z,5.32
2019-02-28T22:29:44.387Z,5.25
2019-02-28T22:32:24.082Z,5.22
2019-02-28T22:34:51.790Z,5.14
2019-02-28T22:37:23.241Z,5.03
2019-02-28T22:39:53.873Z,5.01
2019-02-28T22:42:24.510Z,4.97
2019-02-28T22:44:56.197Z,4.90
2019-02-28T22:47:27.101Z,4.86
2019-02-28T22:49:58.850Z,4.77
2019-02-28T22:52:29.788Z,4.64
2019-02-28T22:55:00.009Z,4.54
2019-02-28T22:57:33.095Z,4.49
2019-02-28T23:00:04.247Z,4.38
2019-02-28T23:02:34.459Z,4.22
2019-02-28T23:05:06.249Z,4.19
2019-02-28T23:07:36.537Z,4.09
2019-02-28T23:10:08.069Z,4.05
2019-02-28T23:12:38.408Z,3.93
2019-02-28T23:15:09.962Z,3.87
2019-02-28T23:17:40.594Z,3.77
2019-02-28T23:20:11.726Z,3.76
2019-02-28T23:22:42.568Z,3.73
2019-02-28T23:25:13.704Z,3.72
2019-02-28T23:27:44.445Z,3.73
2019-02-28T23:30:21.980Z,3.74
2019-02-28T23:32:55.536Z,3.70
2019-02-28T23:35:29.250Z,3.69
2019-02-28T23:38:01.199Z,3.66
2019-02-28T23:40:33.365Z,3.68
2019-02-28T23:43:04.503Z,3.66
2019-02-28T23:45:35.135Z,3.78
2019-02-28T23:48:05.904Z,3.73
2019-02-28T23:50:36.237Z,3.75
2019-02-28T23:53:06.821Z,3.74
2019-02-28T23:55:37.759Z,3.69
2019-02-28T23:58:08.389Z,3.72
